sensor_id;sensor_type;location;lat;lon;timestamp;temperature;humidity
13072;DHT22;6602;58.934;11.166;2023-04-25T00:01:47;9.90;99.90
13072;DHT22;6602;58.934;11.166;2023-04-25T00:06:51;9.90;99.90
13072;DHT22;6602;58.934;11.166;2023-04-25T00:11:54;9.80;99.90
13072;DHT22;6602;58.934;11.166;2023-04-25T00:16:57;9.80;99.90
13072;DHT22;6602;58.934;11.166;2023-04-25T00:22:00;9.70;99.90
13072;DHT22;6602;58.934;11.166;2023-04-25T00:27:04;9.70;99.90
13072;DHT22;6602;58.934;11.166;2023-04-25T00:32:07;9.70;99.90
13072;DHT22;6602;58.934;11.166;2023-04-25T00:37:11;9.70;99.90
13072;DHT22;6602;58.934;11.166;2023-04-25T00:42:16;9.60;99.90
13072;DHT22;6602;58.934;11.166;2023-04-25T00:47:17;9.60;99.90
13072;DHT22;6602;58.934;11.166;2023-04-25T00:52:22;9.60;99.90
13072;DHT22;6602;58.934;11.166;2023-04-25T00:57:24;9.60;99.90
13072;DHT22;6602;58.934;11.166;2023-04-25T01:02:29;9.60;99.90
13072;DHT22;6602;58.934;11.166;2023-04-25T01:07:31;9.60;99.90
13072;DHT22;6602;58.934;11.166;2023-04-25T01:12:32;9.60;99.90
13072;DHT22;6602;58.934;11.166;2023-04-25T01:17:36;9.60;99.90
13072;DHT22;6602;58.934;11.166;2023-04-25T01:22:37;9.50;99.90
13072;DHT22;6602;58.934;11.166;2023-04-25T01:27:44;9.60;99.90
13072;DHT22;6602;58.934;11.166;2023-04-25T01:32:47;9.50;99.90
13072;DHT22;6602;58.934;11.166;2023-04-25T01:37:51;9.60;99.90
13072;DHT22;6602;58.934;11.166;2023-04-25T01:42:54;9.50;99.90
13072;DHT22;6602;58.934;11.166;2023-04-25T01:47:58;9.50;99.90
13072;DHT22;6602;58.934;11.166;2023-04-25T01:53:02;9.50;99.90
13072;DHT22;6602;58.934;11.166;2023-04-25T01:58:05;9.40;99.90
13072;DHT22;6602;58.934;11.166;2023-04-25T02:03:17;9.40;99.90
13072;DHT22;6602;58.934;11.166;2023-04-25T02:08:18;9.30;99.90
13072;DHT22;6602;58.934;11.166;2023-04-25T02:13:22;9.30;99.90
13072;DHT22;6602;58.934;11.166;2023-04-25T02:18:23;9.30;99.90
13072;DHT22;6602;58.934;11.166;2023-04-25T02:23:25;9.30;99.90
13072;DHT22;6602;58.934;11.166;2023-04-25T02:28:29;9.20;99.90
13072;DHT22;6602;58.934;11.166;2023-04-25T02:33:30;9.20;99.90
13072;DHT22;6602;58.934;11.166;2023-04-25T02:38:33;9.20;99.90
13072;DHT22;6602;58.934;11.166;2023-04-25T02:43:34;9.20;99.90
13072;DHT22;6602;58.934;11.166;2023-04-25T02:48:38;9.20;99.90
13072;DHT22;6602;58.934;11.166;2023-04-25T02:53:39;9.20;99.90
13072;DHT22;6602;58.934;11.166;2023-04-25T02:58:43;9.10;99.90
13072;DHT22;6602;58.934;11.166;2023-04-25T03:03:47;9.10;99.90
13072;DHT22;6602;58.934;11.166;2023-04-25T03:08:48;9.10;99.90
13072;DHT22;6602;58.934;11.166;2023-04-25T03:13:52;9.00;99.90
13072;DHT22;6602;58.934;11.166;2023-04-25T03:18:53;9.00;99.90
13072;DHT22;6602;58.934;11.166;2023-04-25T03:23:57;9.00;99.90
13072;DHT22;6602;58.934;11.166;2023-04-25T03:28:58;8.90;99.90
13072;DHT22;6602;58.934;11.166;2023-04-25T03:33:58;8.90;99.90
13072;DHT22;6602;58.934;11.166;2023-04-25T03:39:02;8.90;99.90
13072;DHT22;6602;58.934;11.166;2023-04-25T03:44:03;8.80;99.90
13072;DHT22;6602;58.934;11.166;2023-04-25T03:49:11;8.80;99.90
13072;DHT22;6602;58.934;11.166;2023-04-25T03:54:12;8.80;99.90
13072;DHT22;6602;58.934;11.166;2023-04-25T03:59:13;8.80;99.90
13072;DHT22;6602;58.934;11.166;2023-04-25T04:04:18;8.80;99.90
13072;DHT22;6602;58.934;11.166;2023-04-25T04:09:19;8.70;99.90
13072;DHT22;6602;58.934;11.166;2023-04-25T04:14:25;8.60;99.90
13072;DHT22;6602;58.934;11.166;2023-04-25T04:19:27;8.60;99.90
13072;DHT22;6602;58.934;11.166;2023-04-25T04:24:28;8.50;99.90
13072;DHT22;6602;58.934;11.166;2023-04-25T04:29:29;8.40;99.90
13072;DHT22;6602;58.934;11.166;2023-04-25T04:34:30;8.50;99.90
13072;DHT22;6602;58.934;11.166;2023-04-25T04:39:40;8.50;99.90
13072;DHT22;6602;58.934;11.166;2023-04-25T04:44:43;8.60;99.90
13072;DHT22;6602;58.934;11.166;2023-04-25T04:49:48;8.40;99.90
13072;DHT22;6602;58.934;11.166;2023-04-25T04:54:49;8.30;99.90
13072;DHT22;6602;58.934;11.166;2023-04-25T04:59:52;8.30;99.90
13072;DHT22;6602;58.934;11.166;2023-04-25T05:04:55;8.30;99.90
13072;DHT22;6602;58.934;11.166;2023-04-25T05:09:56;8.30;99.90
13072;DHT22;6602;58.934;11.166;2023-04-25T05:15:00;8.30;99.90
13072;DHT22;6602;58.934;11.166;2023-04-25T05:20:01;8.20;99.90
13072;DHT22;6602;58.934;11.166;2023-04-25T05:25:05;8.20;99.90
13072;DHT22;6602;58.934;11.166;2023-04-25T05:30:07;8.30;99.90
13072;DHT22;6602;58.934;11.166;2023-04-25T05:35:09;8.30;99.90
13072;DHT22;6602;58.934;11.166;2023-04-25T05:40:13;8.30;99.90
13072;DHT22;6602;58.934;11.166;2023-04-25T05:45:14;8.30;99.90
13072;DHT22;6602;58.934;11.166;2023-04-25T05:50:21;8.40;99.90
13072;DHT22;6602;58.934;11.166;2023-04-25T05:55:22;8.40;99.90
13072;DHT22;6602;58.934;11.166;2023-04-25T06:00:27;8.40;99.90
13072;DHT22;6602;58.934;11.166;2023-04-25T06:05:32;8.40;99.90
13072;DHT22;6602;58.934;11.166;2023-04-25T06:10:33;8.50;99.90
13072;DHT22;6602;58.934;11.166;2023-04-25T06:15:37;8.50;99.90
13072;DHT22;6602;58.934;11.166;2023-04-25T06:20:45;8.50;99.90
13072;DHT22;6602;58.934;11.166;2023-04-25T06:25:48;8.50;99.90
13072;DHT22;6602;58.934;11.166;2023-04-25T06:30:50;8.60;99.90
13072;DHT22;6602;58.934;11.166;2023-04-25T06:35:54;8.60;99.90
13072;DHT22;6602;58.934;11.166;2023-04-25T06:40:55;8.60;99.90
13072;DHT22;6602;58.934;11.166;2023-04-25T06:46:03;8.70;99.90
13072;DHT22;6602;58.934;11.166;2023-04-25T06:51:05;8.70;99.90
13072;DHT22;6602;58.934;11.166;2023-04-25T06:56:06;8.70;99.90
13072;DHT22;6602;58.934;11.166;2023-04-25T07:01:10;8.70;99.90
13072;DHT22;6602;58.934;11.166;2023-04-25T07:06:10;8.80;99.90
13072;DHT22;6602;58.934;11.166;2023-04-25T07:11:14;8.80;99.90
13072;DHT22;6602;58.934;11.166;2023-04-25T07:16:16;8.80;99.90
13072;DHT22;6602;58.934;11.166;2023-04-25T07:21:17;8.80;99.90
13072;DHT22;6602;58.934;11.166;2023-04-25T07:26:20;8.90;99.90
13072;DHT22;6602;58.934;11.166;2023-04-25T07:31:22;8.90;99.90
13072;DHT22;6602;58.934;11.166;2023-04-25T07:36:27;9.00;99.90
13072;DHT22;6602;58.934;11.166;2023-04-25T07:41:28;9.00;99.90
13072;DHT22;6602;58.934;11.166;2023-04-25T07:46:32;9.00;99.90
13072;DHT22;6602;58.934;11.166;2023-04-25T07:51:35;9.10;99.90
13072;DHT22;6602;58.934;11.166;2023-04-25T07:56:36;9.10;99.90
13072;DHT22;6602;58.934;11.166;2023-04-25T08:01:40;9.10;99.90
13072;DHT22;6602;58.934;11.166;2023-04-25T08:06:41;9.00;99.90
13072;DHT22;6602;58.934;11.166;2023-04-25T08:11:48;9.00;99.90
13072;DHT22;6602;58.934;11.166;2023-04-25T08:16:50;8.80;99.90
13072;DHT22;6602;58.934;11.166;2023-04-25T08:21:54;8.90;99.90
13072;DHT22;6602;58.934;11.166;2023-04-25T08:26:56;9.00;99.90
13072;DHT22;6602;58.934;11.166;2023-04-25T08:32:00;8.90;99.90
13072;DHT22;6602;58.934;11.166;2023-04-25T08:37:04;8.90;99.90
13072;DHT22;6602;58.934;11.166;2023-04-25T08:42:07;8.90;99.90
13072;DHT22;6602;58.934;11.166;2023-04-25T08:47:14;8.80;99.90
13072;DHT22;6602;58.934;11.166;2023-04-25T08:52:21;8.80;99.90
13072;DHT22;6602;58.934;11.166;2023-04-25T08:57:23;8.80;99.90
13072;DHT22;6602;58.934;11.166;2023-04-25T09:02:24;8.90;99.90
13072;DHT22;6602;58.934;11.166;2023-04-25T09:07:25;8.90;99.90
13072;DHT22;6602;58.934;11.166;2023-04-25T09:12:32;8.90;99.90
13072;DHT22;6602;58.934;11.166;2023-04-25T09:17:33;8.80;99.90
13072;DHT22;6602;58.934;11.166;2023-04-25T09:22:36;8.90;99.90
13072;DHT22;6602;58.934;11.166;2023-04-25T09:27:52;9.10;99.90
13072;DHT22;6602;58.934;11.166;2023-04-25T09:32:57;9.20;99.90
13072;DHT22;6602;58.934;11.166;2023-04-25T09:37:58;9.20;99.90
13072;DHT22;6602;58.934;11.166;2023-04-25T09:42:59;9.30;99.90
13072;DHT22;6602;58.934;11.166;2023-04-25T09:48:04;9.40;99.90
13072;DHT22;6602;58.934;11.166;2023-04-25T09:53:10;9.00;99.90
13072;DHT22;6602;58.934;11.166;2023-04-25T09:58:13;8.70;99.90
13072;DHT22;6602;58.934;11.166;2023-04-25T10:03:20;8.60;99.90
13072;DHT22;6602;58.934;11.166;2023-04-25T10:08:24;8.50;99.90
13072;DHT22;6602;58.934;11.166;2023-04-25T10:13:28;8.40;99.90
13072;DHT22;6602;58.934;11.166;2023-04-25T10:18:31;8.30;99.90
13072;DHT22;6602;58.934;11.166;2023-04-25T10:23:32;8.20;99.90
13072;DHT22;6602;58.934;11.166;2023-04-25T10:28:58;8.10;99.90
13072;DHT22;6602;58.934;11.166;2023-04-25T10:34:00;8.00;99.90
13072;DHT22;6602;58.934;11.166;2023-04-25T10:39:06;7.30;99.90
13072;DHT22;6602;58.934;11.166;2023-04-25T10:44:15;6.90;99.90
13072;DHT22;6602;58.934;11.166;2023-04-25T10:49:37;6.60;99.90
13072;DHT22;6602;58.934;11.166;2023-04-25T10:54:57;6.50;99.90
13072;DHT22;6602;58.934;11.166;2023-04-25T11:05:19;6.20;99.90
13072;DHT22;6602;58.934;11.166;2023-04-25T11:10:26;6.20;99.90
13072;DHT22;6602;58.934;11.166;2023-04-25T11:15:32;6.10;99.90
13072;DHT22;6602;58.934;11.166;2023-04-25T11:20:33;6.10;99.90
13072;DHT22;6602;58.934;11.166;2023-04-25T11:25:40;5.90;99.90
13072;DHT22;6602;58.934;11.166;2023-04-25T11:30:50;6.00;99.90
13072;DHT22;6602;58.934;11.166;2023-04-25T11:35:59;5.90;99.90
13072;DHT22;6602;58.934;11.166;2023-04-25T11:41:03;5.90;99.90
13072;DHT22;6602;58.934;11.166;2023-04-25T11:46:19;6.10;99.90
13072;DHT22;6602;58.934;11.166;2023-04-25T11:51:20;6.00;99.90
13072;DHT22;6602;58.934;11.166;2023-04-25T11:56:33;5.90;99.90
13072;DHT22;6602;58.934;11.166;2023-04-25T12:01:38;5.80;99.90
13072;DHT22;6602;58.934;11.166;2023-04-25T12:06:42;5.90;99.90
13072;DHT22;6602;58.934;11.166;2023-04-25T12:11:48;5.80;99.90
13072;DHT22;6602;58.934;11.166;2023-04-25T12:16:50;5.80;99.90
13072;DHT22;6602;58.934;11.166;2023-04-25T12:21:52;5.60;99.90
13072;DHT22;6602;58.934;11.166;2023-04-25T12:27:02;5.30;99.90
13072;DHT22;6602;58.934;11.166;2023-04-25T12:32:03;5.10;99.90
13072;DHT22;6602;58.934;11.166;2023-04-25T12:37:05;5.00;99.90
13072;DHT22;6602;58.934;11.166;2023-04-25T12:42:06;4.80;99.90
13072;DHT22;6602;58.934;11.166;2023-04-25T12:47:08;4.80;99.90
13072;DHT22;6602;58.934;11.166;2023-04-25T12:52:09;4.70;99.90
13072;DHT22;6602;58.934;11.166;2023-04-25T12:57:11;4.70;99.90
13072;DHT22;6602;58.934;11.166;2023-04-25T13:02:12;4.70;99.90
13072;DHT22;6602;58.934;11.166;2023-04-25T13:07:13;4.50;99.90
13072;DHT22;6602;58.934;11.166;2023-04-25T13:12:14;4.50;99.90
13072;DHT22;6602;58.934;11.166;2023-04-25T13:17:16;4.40;99.90
13072;DHT22;6602;58.934;11.166;2023-04-25T13:22:21;4.30;99.90
13072;DHT22;6602;58.934;11.166;2023-04-25T13:27:22;4.20;99.90
13072;DHT22;6602;58.934;11.166;2023-04-25T13:32:23;4.20;99.90
13072;DHT22;6602;58.934;11.166;2023-04-25T13:37:24;4.20;99.90
13072;DHT22;6602;58.934;11.166;2023-04-25T13:42:26;4.10;99.90
13072;DHT22;6602;58.934;11.166;2023-04-25T13:47:27;4.00;99.90
13072;DHT22;6602;58.934;11.166;2023-04-25T13:52:29;4.00;99.90
13072;DHT22;6602;58.934;11.166;2023-04-25T13:57:33;4.00;99.90
13072;DHT22;6602;58.934;11.166;2023-04-25T14:02:35;3.90;99.90
13072;DHT22;6602;58.934;11.166;2023-04-25T14:07:37;4.00;99.90
13072;DHT22;6602;58.934;11.166;2023-04-25T14:12:42;4.00;99.90
13072;DHT22;6602;58.934;11.166;2023-04-25T14:17:43;4.00;99.90
13072;DHT22;6602;58.934;11.166;2023-04-25T14:22:46;4.20;99.90
13072;DHT22;6602;58.934;11.166;2023-04-25T14:27:47;4.10;99.90
13072;DHT22;6602;58.934;11.166;2023-04-25T14:32:56;4.10;99.90
13072;DHT22;6602;58.934;11.166;2023-04-25T14:37:57;4.30;99.90
13072;DHT22;6602;58.934;11.166;2023-04-25T14:42:58;4.20;99.90
13072;DHT22;6602;58.934;11.166;2023-04-25T14:47:59;4.10;99.90
13072;DHT22;6602;58.934;11.166;2023-04-25T14:53:00;4.00;99.90
13072;DHT22;6602;58.934;11.166;2023-04-25T14:58:03;3.80;99.90
13072;DHT22;6602;58.934;11.166;2023-04-25T15:03:10;3.90;99.90
13072;DHT22;6602;58.934;11.166;2023-04-25T15:08:13;3.90;99.90
13072;DHT22;6602;58.934;11.166;2023-04-25T15:13:14;3.90;99.90
13072;DHT22;6602;58.934;11.166;2023-04-25T15:18:16;4.00;99.90
13072;DHT22;6602;58.934;11.166;2023-04-25T15:23:18;4.00;99.90
13072;DHT22;6602;58.934;11.166;2023-04-25T15:28:22;4.00;99.90
13072;DHT22;6602;58.934;11.166;2023-04-25T15:33:25;4.10;99.90
13072;DHT22;6602;58.934;11.166;2023-04-25T15:38:26;4.10;99.90
13072;DHT22;6602;58.934;11.166;2023-04-25T15:43:27;4.20;99.90
13072;DHT22;6602;58.934;11.166;2023-04-25T15:48:28;4.20;99.90
13072;DHT22;6602;58.934;11.166;2023-04-25T15:53:33;4.30;99.90
13072;DHT22;6602;58.934;11.166;2023-04-25T15:58:38;4.30;99.90
13072;DHT22;6602;58.934;11.166;2023-04-25T16:03:41;4.40;99.90
13072;DHT22;6602;58.934;11.166;2023-04-25T16:08:42;4.30;99.90
13072;DHT22;6602;58.934;11.166;2023-04-25T16:13:43;4.30;99.90
13072;DHT22;6602;58.934;11.166;2023-04-25T16:18:44;4.40;99.90
13072;DHT22;6602;58.934;11.166;2023-04-25T16:23:47;4.50;99.90
13072;DHT22;6602;58.934;11.166;2023-04-25T16:28:51;4.40;99.90
13072;DHT22;6602;58.934;11.166;2023-04-25T16:33:52;4.50;99.90
13072;DHT22;6602;58.934;11.166;2023-04-25T16:38:53;4.60;99.90
13072;DHT22;6602;58.934;11.166;2023-04-25T16:43:57;4.70;99.90
13072;DHT22;6602;58.934;11.166;2023-04-25T16:48:58;4.70;99.90
13072;DHT22;6602;58.934;11.166;2023-04-25T16:53:59;4.70;99.90
13072;DHT22;6602;58.934;11.166;2023-04-25T16:59:03;4.60;99.90
13072;DHT22;6602;58.934;11.166;2023-04-25T17:04:04;4.70;99.90
13072;DHT22;6602;58.934;11.166;2023-04-25T17:09:05;4.70;99.90
13072;DHT22;6602;58.934;11.166;2023-04-25T17:14:08;4.70;99.90
13072;DHT22;6602;58.934;11.166;2023-04-25T17:19:09;4.70;99.90
13072;DHT22;6602;58.934;11.166;2023-04-25T17:24:10;4.60;99.90
13072;DHT22;6602;58.934;11.166;2023-04-25T17:29:11;4.60;99.90
13072;DHT22;6602;58.934;11.166;2023-04-25T17:34:12;4.70;99.90
13072;DHT22;6602;58.934;11.166;2023-04-25T17:39:17;4.80;99.90
13072;DHT22;6602;58.934;11.166;2023-04-25T17:44:19;4.80;99.90
13072;DHT22;6602;58.934;11.166;2023-04-25T17:49:20;4.70;99.90
13072;DHT22;6602;58.934;11.166;2023-04-25T17:54:21;4.70;99.90
13072;DHT22;6602;58.934;11.166;2023-04-25T17:59:23;4.60;99.90
13072;DHT22;6602;58.934;11.166;2023-04-25T18:04:24;4.50;99.90
13072;DHT22;6602;58.934;11.166;2023-04-25T18:09:25;4.60;99.90
13072;DHT22;6602;58.934;11.166;2023-04-25T18:14:26;4.50;99.90
13072;DHT22;6602;58.934;11.166;2023-04-25T18:19:27;4.60;99.90
13072;DHT22;6602;58.934;11.166;2023-04-25T18:24:31;4.60;99.90
13072;DHT22;6602;58.934;11.166;2023-04-25T18:29:36;4.50;99.90
13072;DHT22;6602;58.934;11.166;2023-04-25T18:34:37;4.60;99.90
13072;DHT22;6602;58.934;11.166;2023-04-25T18:39:41;4.50;99.90
13072;DHT22;6602;58.934;11.166;2023-04-25T18:44:42;4.60;99.90
13072;DHT22;6602;58.934;11.166;2023-04-25T18:49:44;4.50;99.90
13072;DHT22;6602;58.934;11.166;2023-04-25T18:54:48;4.50;99.90
13072;DHT22;6602;58.934;11.166;2023-04-25T18:59:49;4.50;99.90
13072;DHT22;6602;58.934;11.166;2023-04-25T19:04:50;4.40;99.90
13072;DHT22;6602;58.934;11.166;2023-04-25T19:09:51;4.40;99.90
13072;DHT22;6602;58.934;11.166;2023-04-25T19:14:56;4.30;99.90
13072;DHT22;6602;58.934;11.166;2023-04-25T19:19:56;4.30;99.90
13072;DHT22;6602;58.934;11.166;2023-04-25T19:24:58;4.20;99.90
13072;DHT22;6602;58.934;11.166;2023-04-25T19:29:59;4.20;99.90
13072;DHT22;6602;58.934;11.166;2023-04-25T19:35:08;4.10;99.90
13072;DHT22;6602;58.934;11.166;2023-04-25T19:40:12;4.10;99.90
13072;DHT22;6602;58.934;11.166;2023-04-25T19:45:13;4.10;99.90
13072;DHT22;6602;58.934;11.166;2023-04-25T19:50:14;4.10;99.90
13072;DHT22;6602;58.934;11.166;2023-04-25T19:55:18;4.00;99.90
13072;DHT22;6602;58.934;11.166;2023-04-25T20:00:19;4.00;99.90
13072;DHT22;6602;58.934;11.166;2023-04-25T20:05:21;4.00;99.90
13072;DHT22;6602;58.934;11.166;2023-04-25T20:10:23;4.00;99.90
13072;DHT22;6602;58.934;11.166;2023-04-25T20:15:24;4.00;99.90
13072;DHT22;6602;58.934;11.166;2023-04-25T20:20:27;3.90;99.90
13072;DHT22;6602;58.934;11.166;2023-04-25T20:25:28;3.90;99.90
13072;DHT22;6602;58.934;11.166;2023-04-25T20:30:30;3.90;99.90
13072;DHT22;6602;58.934;11.166;2023-04-25T20:35:32;3.80;99.90
13072;DHT22;6602;58.934;11.166;2023-04-25T20:40:33;3.80;99.90
13072;DHT22;6602;58.934;11.166;2023-04-25T20:45:37;3.80;99.90
13072;DHT22;6602;58.934;11.166;2023-04-25T20:50:39;3.80;99.90
13072;DHT22;6602;58.934;11.166;2023-04-25T20:55:40;3.80;99.90
13072;DHT22;6602;58.934;11.166;2023-04-25T21:00:41;3.80;99.90
13072;DHT22;6602;58.934;11.166;2023-04-25T21:05:45;3.80;99.90
13072;DHT22;6602;58.934;11.166;2023-04-25T21:10:46;3.80;99.90
13072;DHT22;6602;58.934;11.166;2023-04-25T21:15:47;3.80;99.90
13072;DHT22;6602;58.934;11.166;2023-04-25T21:20:48;3.80;99.90
13072;DHT22;6602;58.934;11.166;2023-04-25T21:25:49;3.80;99.90
13072;DHT22;6602;58.934;11.166;2023-04-25T21:30:51;3.70;99.90
13072;DHT22;6602;58.934;11.166;2023-04-25T21:35:52;3.70;99.90
13072;DHT22;6602;58.934;11.166;2023-04-25T21:40:54;3.80;99.90
13072;DHT22;6602;58.934;11.166;2023-04-25T21:45:56;3.80;99.90
13072;DHT22;6602;58.934;11.166;2023-04-25T21:50:59;3.70;99.90
13072;DHT22;6602;58.934;11.166;2023-04-25T21:56:01;3.70;99.90
13072;DHT22;6602;58.934;11.166;2023-04-25T22:01:02;3.70;99.90
13072;DHT22;6602;58.934;11.166;2023-04-25T22:06:04;3.70;99.90
13072;DHT22;6602;58.934;11.166;2023-04-25T22:11:06;3.70;99.90
13072;DHT22;6602;58.934;11.166;2023-04-25T22:16:07;3.60;99.90
13072;DHT22;6602;58.934;11.166;2023-04-25T22:21:11;3.60;99.90
13072;DHT22;6602;58.934;11.166;2023-04-25T22:26:14;3.50;99.90
13072;DHT22;6602;58.934;11.166;2023-04-25T22:31:15;3.60;99.90
13072;DHT22;6602;58.934;11.166;2023-04-25T22:36:17;3.50;99.90
13072;DHT22;6602;58.934;11.166;2023-04-25T22:41:19;3.50;99.90
13072;DHT22;6602;58.934;11.166;2023-04-25T22:46:20;3.50;99.90
13072;DHT22;6602;58.934;11.166;2023-04-25T22:51:21;3.50;99.90
13072;DHT22;6602;58.934;11.166;2023-04-25T22:56:28;3.50;99.90
13072;DHT22;6602;58.934;11.166;2023-04-25T23:01:29;3.50;99.90
13072;DHT22;6602;58.934;11.166;2023-04-25T23:06:31;3.50;99.90
13072;DHT22;6602;58.934;11.166;2023-04-25T23:11:32;3.50;99.90
13072;DHT22;6602;58.934;11.166;2023-04-25T23:16:35;3.40;99.90
13072;DHT22;6602;58.934;11.166;2023-04-25T23:21:38;3.50;99.90
13072;DHT22;6602;58.934;11.166;2023-04-25T23:26:40;3.40;99.90
13072;DHT22;6602;58.934;11.166;2023-04-25T23:31:43;3.40;99.90
13072;DHT22;6602;58.934;11.166;2023-04-25T23:36:44;3.40;99.90
13072;DHT22;6602;58.934;11.166;2023-04-25T23:41:45;3.40;99.90
13072;DHT22;6602;58.934;11.166;2023-04-25T23:46:46;3.30;99.90
13072;DHT22;6602;58.934;11.166;2023-04-25T23:51:47;3.40;99.90
13072;DHT22;6602;58.934;11.166;2023-04-25T23:56:48;3.30;99.90
